Time;durP1;ratioP1;P1;durP2;ratioP2;P2;SDS_P1;SDS_P2;PMS_P1;PMS_P2;Temp;Humidity;BMP_temperature;BMP_pressure;BME280_temperature;BME280_humidity;BME280_pressure;Samples;Min_cycle;Max_cycle;Signal;HPM_P1;HPM_P2
2021/12/02 00:00:46;;;;;;;15.35;9.45;;;205.50;2252.80;;;;;;5055054;28;20051;-75
2021/12/02 00:03:27;;;;;;;16.00;9.15;;;205.40;2252.80;;;;;;5070567;28;20478;-75
2021/12/02 00:05:59;;;;;;;16.90;8.18;;;205.40;2252.80;;;;;;5072798;28;20016;-75
2021/12/02 00:08:28;;;;;;;12.80;7.05;;;205.30;2252.80;;;;;;5053714;28;20437;-75
2021/12/02 00:10:56;;;;;;;15.13;9.27;;;205.30;2252.80;;;;;;5053973;28;20088;-75
2021/12/02 00:13:25;;;;;;;14.95;9.05;;;205.30;2252.80;;;;;;5055369;28;20033;-75
2021/12/02 00:16:04;;;;;;;11.65;7.25;;;205.40;2252.80;;;;;;5055829;28;20134;-75
2021/12/02 00:21:31;;;;;;;13.82;7.95;;;205.50;2252.80;;;;;;5010101;28;20445;-76
2021/12/02 00:24:22;;;;;;;16.13;7.18;;;205.50;2252.80;;;;;;5008231;28;20033;-74
2021/12/02 00:26:59;;;;;;;12.55;7.18;;;205.50;2252.80;;;;;;4994484;28;20030;-75
2021/12/02 00:29:47;;;;;;;13.55;8.20;;;205.50;2252.80;;;;;;5011880;28;20460;-75
2021/12/02 00:32:12;;;;;;;10.60;7.97;;;205.50;2252.80;;;;;;5011881;28;20225;-74
2021/12/02 00:34:50;;;;;;;12.48;7.50;;;205.50;2252.80;;;;;;5011627;28;20391;-75
2021/12/02 00:37:26;;;;;;;12.10;7.53;;;205.50;2252.80;;;;;;5011265;28;20041;-75
2021/12/02 00:39:58;;;;;;;13.40;7.72;;;205.50;2252.80;;;;;;5009299;28;20031;-75
2021/12/02 00:42:40;;;;;;;13.05;8.40;;;205.40;2252.80;;;;;;5007876;28;20052;-75
2021/12/02 00:45:09;;;;;;;13.40;7.97;;;205.50;2252.80;;;;;;5010481;28;20069;-75
2021/12/02 00:47:50;;;;;;;15.40;8.65;;;205.40;2252.80;;;;;;5011748;28;20112;-75
2021/12/02 00:50:31;;;;;;;11.85;8.13;;;205.40;2252.80;;;;;;4995435;28;20022;-75
2021/12/02 00:53:10;;;;;;;12.32;8.27;;;205.40;2252.80;;;;;;5011255;28;20054;-75
2021/12/02 00:55:42;;;;;;;14.88;9.32;;;205.40;2252.80;;;;;;5011444;28;20026;-75
2021/12/02 00:58:19;;;;;;;17.88;9.43;;;205.40;2252.80;;;;;;5034488;28;20041;-75
2021/12/02 01:01:00;;;;;;;19.05;9.48;;;205.40;2252.80;;;;;;5071555;28;20021;-75
2021/12/02 01:03:35;;;;;;;14.20;8.82;;;205.50;2252.80;;;;;;5068464;28;20017;-75
2021/12/02 01:06:11;;;;;;;12.70;7.88;;;205.50;2252.80;;;;;;5071817;28;20020;-76
2021/12/02 01:08:40;;;;;;;13.63;8.48;;;205.50;2252.80;;;;;;5070680;28;20032;-75
2021/12/02 01:11:13;;;;;;;12.50;8.02;;;205.50;2252.80;;;;;;5070893;28;20059;-75
2021/12/02 01:13:42;;;;;;;13.40;8.63;;;205.50;2252.80;;;;;;5053545;28;20425;-75
2021/12/02 01:16:11;;;;;;;11.77;8.43;;;205.50;2252.80;;;;;;5073598;28;20522;-75
2021/12/02 01:18:42;;;;;;;13.20;7.97;;;205.50;2252.80;;;;;;5073305;28;20036;-75
2021/12/02 01:21:20;;;;;;;12.70;8.70;;;205.50;2252.80;;;;;;5072876;28;20024;-75
2021/12/02 01:23:53;;;;;;;12.82;8.13;;;205.50;2252.80;;;;;;5073648;28;20044;-75
2021/12/02 01:26:33;;;;;;;15.52;7.72;;;205.40;2252.80;;;;;;5045012;28;20032;-75
2021/12/02 01:29:05;;;;;;;10.85;8.23;;;205.50;2252.80;;;;;;5073281;28;20045;-75
2021/12/02 01:31:47;;;;;;;14.15;8.18;;;205.40;2252.80;;;;;;5073407;28;20028;-75
2021/12/02 01:34:14;;;;;;;14.82;9.32;;;205.40;2252.80;;;;;;5052422;28;20036;-76
2021/12/02 01:36:42;;;;;;;11.10;7.22;;;205.30;2252.80;;;;;;5055314;28;20025;-75
2021/12/02 01:39:14;;;;;;;11.60;7.75;;;205.30;2252.80;;;;;;5072044;28;20028;-75
2021/12/02 01:41:54;;;;;;;12.82;7.80;;;205.30;2252.80;;;;;;5070236;28;20021;-75
2021/12/02 01:44:42;;;;;;;13.02;8.68;;;205.30;2252.80;;;;;;5071745;28;20463;-75
2021/12/02 01:47:33;;;;;;;13.75;7.90;;;205.30;2252.80;;;;;;5053189;28;20055;-75
2021/12/02 01:50:04;;;;;;;14.80;7.75;;;205.30;2252.80;;;;;;5052753;28;20364;-74
2021/12/02 01:52:43;;;;;;;13.15;7.78;;;205.30;2252.80;;;;;;5047013;28;20407;-75
2021/12/02 01:55:17;;;;;;;12.40;6.95;;;205.30;2252.80;;;;;;5050640;28;20480;-75
2021/12/02 01:58:05;;;;;;;9.63;6.40;;;205.30;2252.80;;;;;;5034589;28;20043;-75
2021/12/02 02:00:47;;;;;;;9.55;6.20;;;205.30;2252.80;;;;;;5052645;28;20055;-75
2021/12/02 02:03:34;;;;;;;13.00;7.35;;;205.40;2252.80;;;;;;5028232;28;20037;-75
2021/12/02 02:06:06;;;;;;;14.60;6.93;;;205.40;2252.80;;;;;;5034291;28;20033;-75
2021/12/02 02:08:45;;;;;;;12.45;6.60;;;205.40;2252.80;;;;;;5034297;28;20041;-75
2021/12/02 02:11:17;;;;;;;9.25;6.13;;;205.50;2252.80;;;;;;5034951;28;20116;-75
2021/12/02 02:13:52;;;;;;;9.35;5.97;;;205.50;2252.80;;;;;;5031768;28;20084;-75
2021/12/02 02:16:38;;;;;;;12.63;6.03;;;205.50;2252.80;;;;;;5040309;28;20119;-75
2021/12/02 02:19:10;;;;;;;11.45;6.93;;;205.50;2252.80;;;;;;5052605;28;20021;-75
2021/12/02 02:21:40;;;;;;;10.10;5.97;;;205.60;2252.80;;;;;;5052250;28;20021;-75
2021/12/02 02:24:12;;;;;;;8.63;6.22;;;205.60;2252.80;;;;;;5052674;28;20037;-75
2021/12/02 02:26:47;;;;;;;9.52;5.88;;;205.50;2252.80;;;;;;5052537;28;20083;-76
2021/12/02 02:29:34;;;;;;;12.13;7.25;;;205.60;2252.80;;;;;;5043462;28;20028;-75
2021/12/02 02:32:06;;;;;;;16.55;7.95;;;205.60;2252.80;;;;;;5031838;28;20034;-74
2021/12/02 02:34:46;;;;;;;11.70;5.90;;;205.50;2252.80;;;;;;5032606;28;20029;-74
2021/12/02 02:37:15;;;;;;;12.85;6.43;;;205.50;2252.80;;;;;;5032040;28;20423;-75
2021/12/02 02:40:09;;;;;;;11.27;7.63;;;205.50;2252.80;;;;;;5031709;28;20021;-74
2021/12/02 02:42:38;;;;;;;8.77;6.18;;;205.50;2252.80;;;;;;5052136;28;20017;-75
2021/12/02 02:45:10;;;;;;;10.85;5.63;;;205.50;2252.80;;;;;;5051918;28;20025;-75
2021/12/02 02:47:58;;;;;;;8.30;6.50;;;205.50;2252.80;;;;;;5052122;28;20108;-75
2021/12/02 02:50:37;;;;;;;8.98;5.78;;;205.50;2252.80;;;;;;5034318;28;20363;-75
2021/12/02 02:53:40;;;;;;;10.68;5.38;;;205.50;2252.80;;;;;;5024278;28;20058;-74
2021/12/02 02:56:18;;;;;;;9.90;6.85;;;205.50;2252.80;;;;;;5011838;28;20037;-74
2021/12/02 03:06:56;;;;;;;8.02;5.25;;;205.60;2252.80;;;;;;5011920;28;20054;-75
2021/12/02 03:12:16;;;;;;;7.03;4.50;;;205.60;2252.80;;;;;;5050930;28;20033;-74
2021/12/02 03:17:39;;;;;;;9.13;6.43;;;205.60;2252.80;;;;;;5051934;28;20021;-75
2021/12/02 03:20:21;;;;;;;7.40;5.18;;;205.60;2252.80;;;;;;5051774;28;20025;-74
2021/12/02 03:23:02;;;;;;;9.13;4.40;;;205.60;2252.80;;;;;;5038064;28;20022;-75
2021/12/02 03:25:28;;;;;;;8.68;5.60;;;205.60;2252.80;;;;;;5030334;28;20387;-75
2021/12/02 03:28:00;;;;;;;5.70;4.10;;;205.60;2252.80;;;;;;5011575;28;20108;-75
2021/12/02 03:30:32;;;;;;;7.00;4.95;;;205.60;2252.80;;;;;;4994068;28;20053;-75
2021/12/02 03:33:01;;;;;;;5.75;3.90;;;205.60;2252.80;;;;;;5010689;28;20076;-75
2021/12/02 03:35:42;;;;;;;8.07;4.68;;;205.60;2252.80;;;;;;5011645;28;20025;-75
2021/12/02 03:38:14;;;;;;;7.50;4.10;;;205.60;2252.80;;;;;;5020414;28;20035;-75
2021/12/02 03:40:43;;;;;;;6.93;4.05;;;205.60;2252.80;;;;;;5045522;28;20093;-75
2021/12/02 03:43:15;;;;;;;10.00;4.80;;;205.60;2252.80;;;;;;5013631;28;20022;-75
2021/12/02 03:45:40;;;;;;;8.77;5.05;;;205.60;2252.80;;;;;;5031415;28;20056;-75
2021/12/02 03:48:06;;;;;;;9.73;4.60;;;205.50;2252.80;;;;;;5031444;28;20056;-75
2021/12/02 03:50:50;;;;;;;8.95;4.60;;;205.50;2252.80;;;;;;5024872;28;20808;-75
2021/12/02 03:53:22;;;;;;;9.35;4.90;;;205.40;2252.80;;;;;;5035424;28;20068;-75
2021/12/02 03:56:13;;;;;;;7.68;4.55;;;205.40;2252.80;;;;;;5033087;28;20037;-75
2021/12/02 03:58:52;;;;;;;7.45;4.60;;;205.40;2252.80;;;;;;5071090;28;20056;-74
2021/12/02 04:01:33;;;;;;;7.43;4.50;;;205.40;2252.80;;;;;;5053440;28;20029;-75
2021/12/02 04:04:04;;;;;;;7.15;4.03;;;205.40;2252.80;;;;;;5071234;28;20021;-75
2021/12/02 04:06:42;;;;;;;13.35;4.53;;;205.40;2252.80;;;;;;5071117;28;20031;-74
2021/12/02 04:09:20;;;;;;;7.07;4.07;;;205.40;2252.80;;;;;;5053013;28;20098;-75
2021/12/02 04:12:10;;;;;;;8.32;4.93;;;205.40;2252.80;;;;;;5071112;28;20032;-74
2021/12/02 04:15:12;;;;;;;8.55;5.05;;;205.40;2252.80;;;;;;5070724;28;20020;-74
2021/12/02 04:17:41;;;;;;;11.50;6.10;;;205.40;2252.80;;;;;;5057958;28;20037;-73
2021/12/02 04:23:07;;;;;;;11.65;6.80;;;205.40;2252.80;;;;;;5051603;28;20110;-74
2021/12/02 04:25:35;;;;;;;10.13;6.22;;;205.40;2252.80;;;;;;5051071;28;20032;-74
2021/12/02 04:28:34;;;;;;;11.52;6.35;;;205.40;2252.80;;;;;;5056633;28;20040;-75
2021/12/02 04:31:06;;;;;;;13.05;6.07;;;205.40;2252.80;;;;;;5074399;28;20025;-74
2021/12/02 04:33:35;;;;;;;13.15;7.78;;;205.30;2252.80;;;;;;5074362;28;20085;-74
2021/12/02 04:36:04;;;;;;;9.48;5.50;;;205.30;2252.80;;;;;;5073434;28;20476;-74
2021/12/02 04:38:48;;;;;;;8.93;4.78;;;205.30;2252.80;;;;;;5074010;28;20036;-74
2021/12/02 04:41:18;;;;;;;8.30;5.00;;;205.30;2252.80;;;;;;5054267;28;20029;-74
2021/12/02 04:43:56;;;;;;;8.18;5.15;;;205.30;2252.80;;;;;;5054552;28;20071;-74
2021/12/02 04:46:37;;;;;;;9.10;5.47;;;205.30;2252.80;;;;;;5070322;28;20056;-74
2021/12/02 04:49:06;;;;;;;6.75;4.20;;;205.30;2252.80;;;;;;5054080;28;20025;-75
2021/12/02 04:51:47;;;;;;;7.90;4.43;;;205.30;2252.80;;;;;;5054393;28;20468;-75
2021/12/02 04:54:35;;;;;;;7.60;5.50;;;205.20;2252.80;;;;;;5036344;28;20285;-75
2021/12/02 04:57:07;;;;;;;11.13;5.57;;;205.20;2252.80;;;;;;5038681;28;20033;-74
2021/12/02 04:59:47;;;;;;;10.55;5.53;;;205.20;2252.80;;;;;;5054042;28;20103;-74
2021/12/02 05:02:28;;;;;;;8.25;5.85;;;205.30;2252.80;;;;;;5053596;28;20025;-74
2021/12/02 05:04:57;;;;;;;6.65;4.53;;;205.30;2252.80;;;;;;5033926;28;20048;-74
2021/12/02 05:07:28;;;;;;;8.75;5.55;;;205.30;2252.80;;;;;;5034187;28;20049;-74
2021/12/02 05:10:10;;;;;;;8.73;4.60;;;205.30;2252.80;;;;;;5052208;28;20028;-74
2021/12/02 05:12:36;;;;;;;7.68;4.03;;;205.30;2252.80;;;;;;5054135;28;20029;-74
2021/12/02 05:15:08;;;;;;;8.60;4.57;;;205.30;2252.80;;;;;;5053586;28;20025;-74
2021/12/02 05:17:59;;;;;;;8.40;5.22;;;205.30;2252.80;;;;;;5053324;28;20029;-74
2021/12/02 05:20:27;;;;;;;8.90;4.75;;;205.30;2252.80;;;;;;5053450;28;20025;-74
2021/12/02 05:22:59;;;;;;;11.05;5.07;;;205.30;2252.80;;;;;;5053396;28;20434;-74
2021/12/02 05:25:43;;;;;;;7.78;5.47;;;205.30;2252.80;;;;;;5052237;28;20021;-74
2021/12/02 05:28:10;;;;;;;8.07;5.10;;;205.30;2252.80;;;;;;5042766;28;20028;-74
2021/12/02 05:30:38;;;;;;;6.72;4.63;;;205.20;2252.80;;;;;;5052770;28;20120;-74
2021/12/02 05:33:10;;;;;;;8.05;4.90;;;205.20;2252.80;;;;;;5053478;28;20029;-74
2021/12/02 05:35:39;;;;;;;7.35;4.93;;;205.20;2252.80;;;;;;5052767;28;20029;-74
2021/12/02 05:38:08;;;;;;;8.30;4.90;;;205.20;2252.80;;;;;;5050669;28;20033;-74
2021/12/02 05:41:11;;;;;;;8.98;5.22;;;205.20;2252.80;;;;;;5047091;28;20036;-74
2021/12/02 05:43:40;;;;;;;7.07;4.32;;;205.20;2252.80;;;;;;5039277;28;20068;-74
2021/12/02 05:46:11;;;;;;;8.18;5.05;;;205.20;2252.80;;;;;;5046856;28;20020;-75
2021/12/02 05:48:40;;;;;;;7.75;4.40;;;205.20;2252.80;;;;;;5021463;28;20028;-74
2021/12/02 05:51:12;;;;;;;6.40;4.78;;;205.20;2252.80;;;;;;5049723;28;20036;-74
2021/12/02 05:53:41;;;;;;;8.13;4.38;;;205.20;2252.80;;;;;;5046483;28;20507;-74
2021/12/02 05:56:09;;;;;;;11.35;4.40;;;205.20;2252.80;;;;;;5052255;28;20029;-74
2021/12/02 05:58:41;;;;;;;7.35;4.47;;;205.10;2252.80;;;;;;5033388;28;20040;-74
2021/12/02 06:01:13;;;;;;;9.82;4.93;;;205.10;2252.80;;;;;;5049062;28;20086;-75
2021/12/02 06:03:42;;;;;;;9.38;4.90;;;205.00;2252.80;;;;;;5051820;28;20526;-75
2021/12/02 06:06:08;;;;;;;7.60;4.55;;;205.00;2252.80;;;;;;5049424;28;20075;-75
2021/12/02 06:08:33;;;;;;;7.03;4.82;;;205.00;2252.80;;;;;;5051763;28;20418;-74
2021/12/02 06:11:02;;;;;;;9.95;4.50;;;205.00;2252.80;;;;;;5036113;28;20033;-74
2021/12/02 06:13:46;;;;;;;9.23;4.80;;;205.00;2252.80;;;;;;5051888;28;20033;-75
2021/12/02 06:16:15;;;;;;;8.65;5.20;;;205.10;2252.80;;;;;;5047962;28;20041;-74
2021/12/02 06:18:41;;;;;;;7.55;4.82;;;205.20;2252.80;;;;;;5049842;28;20036;-75
2021/12/02 06:21:13;;;;;;;7.55;5.10;;;205.20;2252.80;;;;;;5048730;28;20032;-75
2021/12/02 06:23:51;;;;;;;8.98;4.63;;;205.30;2252.80;;;;;;5050769;28;20036;-76
2021/12/02 06:26:32;;;;;;;8.75;5.20;;;205.30;2252.80;;;;;;5036564;28;20549;-75
2021/12/02 06:29:14;;;;;;;11.10;4.93;;;205.30;2252.80;;;;;;5034655;28;20033;-75
2021/12/02 06:31:42;;;;;;;7.65;4.72;;;205.30;2252.80;;;;;;5048825;28;20029;-75
2021/12/02 06:34:17;;;;;;;7.00;4.68;;;205.40;2252.80;;;;;;5040516;28;20041;-75
2021/12/02 06:36:43;;;;;;;8.95;5.35;;;205.50;2252.80;;;;;;5033231;28;20036;-74
2021/12/02 06:39:33;;;;;;;7.75;4.53;;;205.50;2252.80;;;;;;5050809;28;20043;-72
2021/12/02 06:42:02;;;;;;;7.90;4.53;;;205.60;2252.80;;;;;;5032138;28;20020;-73
2021/12/02 06:44:34;;;;;;;12.35;5.90;;;205.60;2252.80;;;;;;5035534;28;20029;-72
2021/12/02 06:47:05;;;;;;;8.60;5.07;;;205.70;2252.80;;;;;;5046715;28;20021;-73
2021/12/02 06:49:35;;;;;;;15.45;5.55;;;205.70;2252.80;;;;;;5050183;28;20025;-73
2021/12/02 06:52:09;;;;;;;10.40;5.85;;;230.40;2252.80;;;;;;5051071;28;20028;-73
2021/12/02 06:54:44;;;;;;;14.35;6.20;;;230.40;2252.80;;;;;;5051627;28;20462;-72
2021/12/02 06:57:17;;;;;;;13.10;6.28;;;230.50;2252.80;;;;;;5025302;28;20049;-72
2021/12/02 07:00:07;;;;;;;9.45;4.93;;;230.50;2252.80;;;;;;5031407;28;20025;-72
2021/12/02 07:02:45;;;;;;;7.00;4.70;;;230.60;2252.80;;;;;;5048643;28;20487;-73
2021/12/02 07:05:33;;;;;;;11.00;4.60;;;230.70;2252.80;;;;;;5033651;28;20570;-73
2021/12/02 07:08:05;;;;;;;13.20;7.65;;;230.80;2252.80;;;;;;5045856;28;20032;-73
2021/12/02 07:10:46;;;;;;;16.92;9.20;;;230.80;2252.80;;;;;;5050504;28;20059;-73
2021/12/02 07:13:26;;;;;;;10.85;6.07;;;230.80;2252.80;;;;;;5049564;28;20716;-73
2021/12/02 07:15:56;;;;;;;8.63;5.45;;;230.80;2252.80;;;;;;5050718;28;20025;-72
2021/12/02 07:18:53;;;;;;;10.07;5.63;;;230.90;2252.80;;;;;;5049699;28;20025;-71
2021/12/02 07:21:21;;;;;;;11.07;5.75;;;231.00;2252.80;;;;;;5052404;28;20021;-72
2021/12/02 07:23:47;;;;;;;17.40;6.38;;;231.00;2252.80;;;;;;5044765;28;20033;-73
2021/12/02 07:26:16;;;;;;;20.50;7.13;;;231.10;2252.80;;;;;;5052254;28;20166;-74
2021/12/02 07:28:51;;;;;;;11.75;6.43;;;231.20;2252.80;;;;;;5052108;28;20028;-74
2021/12/02 07:31:37;;;;;;;10.07;5.25;;;231.20;2252.80;;;;;;5033154;28;20548;-74
2021/12/02 07:34:06;;;;;;;9.50;5.28;;;231.30;2252.80;;;;;;5033151;28;20055;-74
2021/12/02 07:36:47;;;;;;;11.73;7.15;;;256.00;2252.80;;;;;;5032717;28;20059;-74
2021/12/02 07:39:35;;;;;;;13.18;7.55;;;256.10;2252.80;;;;;;5050593;28;20032;-74
2021/12/02 07:42:07;;;;;;;10.38;5.78;;;256.20;2252.80;;;;;;5050284;28;20024;-74
2021/12/02 07:44:39;;;;;;;12.07;7.38;;;256.20;2252.80;;;;;;5050527;28;20039;-74
2021/12/02 07:47:26;;;;;;;19.98;6.95;;;256.20;2252.80;;;;;;5050742;28;20049;-74
2021/12/02 07:50:08;;;;;;;14.35;7.43;;;256.30;2252.80;;;;;;5033494;28;20028;-72
2021/12/02 07:53:09;;;;;;;14.27;8.48;;;256.20;2252.80;;;;;;5047288;28;20499;-72
2021/12/02 07:55:56;;;;;;;19.13;14.65;;;256.30;2252.80;;;;;;4954681;28;20035;-74
2021/12/02 07:58:59;;;;;;;16.70;12.55;;;256.30;2252.80;;;;;;4969517;28;20046;-73
2021/12/02 08:01:40;;;;;;;14.80;10.40;;;256.30;2252.80;;;;;;4970070;28;20038;-73
2021/12/02 08:04:30;;;;;;;14.57;8.90;;;256.30;2252.80;;;;;;4969478;28;20035;-73
2021/12/02 08:06:58;;;;;;;21.45;10.85;;;256.40;2252.80;;;;;;4970028;28;20413;-73
2021/12/02 08:09:39;;;;;;;20.50;10.07;;;256.40;2252.80;;;;;;4968868;28;20070;-73
2021/12/02 08:12:11;;;;;;;12.18;7.40;;;256.40;2252.80;;;;;;4956473;28;20077;-72
2021/12/02 08:14:39;;;;;;;15.98;7.82;;;256.50;2252.80;;;;;;4968404;28;20038;-72
2021/12/02 08:17:11;;;;;;;20.52;9.02;;;256.50;2252.80;;;;;;4973670;28;20118;-74
2021/12/02 08:19:39;;;;;;;23.92;11.35;;;256.60;2252.80;;;;;;4962155;28;20038;-72
2021/12/02 08:22:11;;;;;;;15.93;9.52;;;256.70;2252.80;;;;;;4954266;28;20458;-73
2021/12/02 08:24:40;;;;;;;26.48;13.07;;;256.80;2252.80;;;;;;4971629;28;20055;-73
2021/12/02 08:27:22;;;;;;;33.90;17.23;;;256.90;2252.80;;;;;;4956655;28;20042;-72
2021/12/02 08:29:51;;;;;;;40.70;18.90;;;281.70;2278.40;;;;;;5005873;28;20129;-74
2021/12/02 08:32:23;;;;;;;35.90;20.65;;;281.80;2278.40;;;;;;5014540;28;20029;-75
2021/12/02 08:34:49;;;;;;;22.23;12.25;;;282.00;2278.40;;;;;;5029079;28;20018;-75
2021/12/02 08:37:21;;;;;;;10.77;7.80;;;282.10;2278.40;;;;;;5033591;28;20048;-75
2021/12/02 08:39:55;;;;;;;13.40;9.13;;;282.10;2278.40;;;;;;5033816;28;20056;-74
2021/12/02 08:42:24;;;;;;;15.25;8.63;;;282.30;2278.40;;;;;;5034399;28;20029;-75
2021/12/02 08:44:52;;;;;;;13.30;7.78;;;282.40;2278.40;;;;;;5016761;28;20095;-75
2021/12/02 08:50:19;;;;;;;10.38;7.35;;;307.20;2304.00;;;;;;5014045;28;20036;-75
2021/12/02 08:52:50;;;;;;;14.10;8.57;;;307.20;2304.00;;;;;;5017855;28;20053;-74
2021/12/02 08:58:14;;;;;;;12.10;7.25;;;307.50;2304.00;;;;;;5049945;28;20044;-74
2021/12/02 09:00:43;;;;;;;11.73;6.80;;;307.60;2304.00;;;;;;5033197;28;20025;-72
2021/12/02 09:03:15;;;;;;;14.10;7.57;;;307.60;2304.00;;;;;;5048720;28;20376;-72
2021/12/02 09:05:44;;;;;;;12.25;7.25;;;307.70;2304.00;;;;;;5051125;28;20094;-74
2021/12/02 09:08:32;;;;;;;13.52;6.85;;;307.80;2304.00;;;;;;5035826;28;20504;-74
2021/12/02 09:11:04;;;;;;;12.52;6.25;;;308.00;2304.00;;;;;;5035309;28;20123;-77
2021/12/02 09:16:45;;;;;;;11.10;7.30;;;333.10;2329.60;;;;;;5050652;28;20059;-74
2021/12/02 09:19:13;;;;;;;11.77;6.47;;;333.50;2329.60;;;;;;5053861;28;20025;-74
2021/12/02 09:21:45;;;;;;;18.67;8.95;;;333.70;2329.60;;;;;;5035489;28;20025;-74
2021/12/02 09:24:32;;;;;;;15.05;6.68;;;358.60;2329.60;;;;;;5030679;28;20024;-74
2021/12/02 09:27:04;;;;;;;12.23;6.38;;;358.70;2329.60;;;;;;5050775;28;20021;-77
2021/12/02 09:29:52;;;;;;;13.02;6.40;;;358.90;2329.60;;;;;;5035221;28;20029;-77
2021/12/02 09:32:18;;;;;;;14.13;8.50;;;359.20;2329.60;;;;;;5051836;28;20416;-76
2021/12/02 09:34:44;;;;;;;15.00;6.43;;;384.10;2329.60;;;;;;5034321;28;20025;-76
2021/12/02 09:37:35;;;;;;;13.18;6.00;;;384.00;2329.60;;;;;;5015602;28;20038;-76
2021/12/02 09:43:11;;;;;;;9.70;6.35;;;384.40;2329.60;;;;;;5053787;28;20040;-76
2021/12/02 09:45:38;;;;;;;12.00;8.13;;;384.30;2329.60;;;;;;5035373;28;20028;-76
2021/12/02 09:48:16;;;;;;;12.45;7.18;;;384.00;2329.60;;;;;;5035593;28;20515;-76
2021/12/02 09:54:06;;;;;;;19.77;8.85;;;384.40;2329.60;;;;;;5043082;28;20087;-75
2021/12/02 09:56:50;;;;;;;20.08;7.93;;;409.60;2355.20;;;;;;5032526;28;20025;-76
2021/12/02 10:02:21;;;;;;;12.18;5.65;;;410.00;2355.20;;;;;;5033230;28;20032;-76
2021/12/02 10:05:08;;;;;;;10.52;5.57;;;410.20;2355.20;;;;;;5015622;28;20018;-76
2021/12/02 10:08:13;;;;;;;11.85;6.85;;;410.30;2355.20;;;;;;5030635;28;20140;-76
2021/12/02 10:10:52;;;;;;;13.50;7.10;;;410.40;2355.20;;;;;;5028962;28;20072;-75
2021/12/02 10:16:16;;;;;;;14.25;8.18;;;435.80;2355.20;;;;;;5012711;28;20045;-75
2021/12/02 10:24:38;;;;;;;12.23;7.68;;;461.40;2380.80;;;;;;4952511;29;20035;-75
2021/12/02 10:27:11;;;;;;;10.98;7.18;;;461.30;2380.80;;;;;;4936234;29;20514;-75
2021/12/02 10:29:55;;;;;;;18.50;10.30;;;461.70;2380.80;;;;;;4951463;29;20039;-75
2021/12/02 10:32:51;;;;;;;16.00;7.93;;;461.60;2380.80;;;;;;4935037;29;20036;-75
2021/12/02 10:35:21;;;;;;;18.60;10.90;;;461.60;2380.80;;;;;;4933433;29;20035;-75
2021/12/02 10:37:53;;;;;;;11.55;7.60;;;461.30;2380.80;;;;;;4952489;28;20038;-75
2021/12/02 10:40:33;;;;;;;17.02;9.52;;;461.00;2380.80;;;;;;4950542;29;20035;-75
2021/12/02 10:43:22;;;;;;;17.10;9.38;;;461.50;2380.80;;;;;;4952407;29;20035;-75
2021/12/02 10:45:51;;;;;;;13.07;8.52;;;461.70;2380.80;;;;;;4952192;29;20443;-76
2021/12/02 10:48:20;;;;;;;12.48;6.32;;;461.40;2380.80;;;;;;4951071;29;20079;-76
2021/12/02 10:51:01;;;;;;;11.50;7.53;;;461.00;2380.80;;;;;;4951874;29;20441;-75
2021/12/02 10:53:33;;;;;;;15.90;9.98;;;461.10;2380.80;;;;;;4959651;28;20057;-75
2021/12/02 10:56:01;;;;;;;20.02;12.07;;;461.50;2380.80;;;;;;4970698;28;20113;-75
2021/12/02 10:58:33;;;;;;;21.77;11.32;;;461.70;2380.80;;;;;;4990487;28;20031;-75
2021/12/02 11:01:02;;;;;;;26.48;12.60;;;461.60;2380.80;;;;;;5011834;28;20029;-75
2021/12/02 11:03:34;;;;;;;21.52;11.35;;;486.70;2380.80;;;;;;5033559;28;20029;-75
2021/12/02 11:06:43;;;;;;;12.25;7.32;;;461.60;2380.80;;;;;;5057856;28;20472;-75
2021/12/02 11:09:43;;;;;;;22.95;13.38;;;486.50;2380.80;;;;;;5052678;28;20036;-76
2021/12/02 11:12:48;;;;;;;16.92;10.27;;;461.50;2380.80;;;;;;5071563;28;20062;-76
2021/12/02 11:15:16;;;;;;;18.20;9.82;;;461.70;2380.80;;;;;;5052592;28;20119;-76
2021/12/02 11:18:11;;;;;;;20.30;11.05;;;486.40;2380.80;;;;;;5066155;28;20029;-75
2021/12/02 11:23:47;;;;;;;12.63;7.63;;;461.40;2380.80;;;;;;5068866;28;20074;-76
2021/12/02 11:26:26;;;;;;;11.38;5.22;;;486.50;2380.80;;;;;;5054621;28;20021;-75
2021/12/02 11:28:58;;;;;;;29.95;16.88;;;461.40;2380.80;;;;;;5051731;28;20361;-75
2021/12/02 11:31:27;;;;;;;24.02;13.45;;;461.30;2380.80;;;;;;5033306;28;20071;-76
2021/12/02 11:34:10;;;;;;;11.55;6.40;;;486.70;2380.80;;;;;;5037079;28;20502;-76
2021/12/02 11:36:35;;;;;;;16.90;10.68;;;487.30;2380.80;;;;;;5044967;28;20037;-76
2021/12/02 11:39:08;;;;;;;17.55;9.98;;;512.10;2380.80;;;;;;5084887;28;20030;-76
2021/12/02 11:41:55;;;;;;;12.77;8.52;;;512.40;2329.60;;;;;;5095940;28;20016;-76
2021/12/02 11:44:27;;;;;;;11.30;6.60;;;512.10;2329.60;;;;;;5094687;28;20020;-76
2021/12/02 11:47:08;;;;;;;10.70;6.90;;;512.20;2304.00;;;;;;5095576;28;20130;-75
2021/12/02 11:49:49;;;;;;;9.77;6.15;;;512.30;2252.80;;;;;;5095293;28;20062;-76
2021/12/02 11:52:27;;;;;;;9.82;6.30;;;487.30;2329.60;;;;;;5055417;28;20033;-75
2021/12/02 11:55:06;;;;;;;10.15;5.63;;;486.70;2380.80;;;;;;5056453;28;20060;-76
2021/12/02 11:57:39;;;;;;;9.55;5.40;;;461.50;2380.80;;;;;;5056914;28;20115;-75
2021/12/02 12:00:27;;;;;;;11.90;6.13;;;461.10;2380.80;;;;;;5057193;28;20129;-76
2021/12/02 12:02:59;;;;;;;12.20;7.10;;;435.90;2355.20;;;;;;5056857;28;20376;-75
2021/12/02 12:05:41;;;;;;;12.00;6.82;;;435.50;2355.20;;;;;;5042220;28;20468;-76
2021/12/02 12:08:28;;;;;;;10.05;6.90;;;435.20;2355.20;;;;;;5065747;28;20032;-75
2021/12/02 12:11:22;;;;;;;11.55;7.90;;;410.30;2355.20;;;;;;5073347;28;20086;-75
2021/12/02 12:14:13;;;;;;;11.45;7.05;;;410.40;2355.20;;;;;;5049019;28;20500;-76
2021/12/02 12:17:02;;;;;;;11.80;7.30;;;435.30;2355.20;;;;;;5041863;28;20028;-76
2021/12/02 12:19:40;;;;;;;15.55;8.40;;;435.40;2355.20;;;;;;5074124;28;20099;-76
2021/12/02 12:22:35;;;;;;;9.98;5.38;;;460.80;2380.80;;;;;;5075336;28;20066;-76
2021/12/02 12:25:06;;;;;;;12.43;6.13;;;461.20;2380.80;;;;;;5072712;28;20029;-76
2021/12/02 12:27:41;;;;;;;8.27;5.07;;;435.80;2355.20;;;;;;5055724;28;20021;-76
2021/12/02 12:30:31;;;;;;;12.80;6.70;;;435.40;2355.20;;;;;;5062728;28;20021;-77
2021/12/02 12:33:05;;;;;;;11.88;6.78;;;435.40;2355.20;;;;;;5055697;28;20119;-78
2021/12/02 12:38:34;;;;;;;10.15;6.47;;;435.80;2355.20;;;;;;5071610;28;20028;-76
2021/12/02 12:41:17;;;;;;;14.38;6.22;;;435.70;2355.20;;;;;;5055894;28;20112;-77
2021/12/02 12:43:50;;;;;;;13.48;7.03;;;435.20;2355.20;;;;;;5072407;28;20063;-76
2021/12/02 12:46:22;;;;;;;16.00;9.77;;;410.10;2355.20;;;;;;5071869;28;20031;-77
2021/12/02 12:52:33;;;;;;;17.92;9.13;;;384.90;2329.60;;;;;;5071004;28;20062;-77
2021/12/02 12:55:43;;;;;;;12.60;8.23;;;384.50;2329.60;;;;;;5071523;28;20118;-78
2021/12/02 12:58:38;;;;;;;17.70;8.95;;;384.40;2329.60;;;;;;5070528;28;20024;-78
2021/12/02 13:01:26;;;;;;;17.33;9.15;;;384.30;2329.60;;;;;;5072932;28;20025;-78
2021/12/02 13:04:16;;;;;;;18.67;10.60;;;384.20;2329.60;;;;;;5049619;28;20510;-78
2021/12/02 13:10:23;;;;;;;17.27;10.55;;;359.30;2329.60;;;;;;5070540;28;20095;-77
2021/12/02 13:12:58;;;;;;;16.70;9.02;;;359.20;2329.60;;;;;;5053611;28;20102;-78
2021/12/02 13:15:36;;;;;;;17.07;8.60;;;359.20;2329.60;;;;;;5069794;28;20111;-77
2021/12/02 13:18:38;;;;;;;23.17;8.70;;;359.20;2329.60;;;;;;5052210;28;20039;-76
2021/12/02 13:21:40;;;;;;;13.95;8.93;;;359.30;2329.60;;;;;;4990982;28;20034;-76
2021/12/02 13:24:18;;;;;;;19.05;10.18;;;384.20;2329.60;;;;;;4981417;28;20022;-77
2021/12/02 13:30:15;;;;;;;16.02;8.45;;;384.10;2329.60;;;;;;4984859;28;20081;-77
2021/12/02 13:32:49;;;;;;;17.17;10.18;;;384.00;2329.60;;;;;;4979956;28;20030;-76
2021/12/02 13:35:28;;;;;;;24.17;13.00;;;359.30;2329.60;;;;;;4987371;28;20485;-76
2021/12/02 13:38:07;;;;;;;24.38;10.43;;;359.20;2329.60;;;;;;4984605;28;20057;-77
2021/12/02 13:40:43;;;;;;;19.27;10.77;;;359.10;2329.60;;;;;;4983797;28;20022;-74
2021/12/02 13:43:19;;;;;;;17.08;11.48;;;359.10;2329.60;;;;;;4988422;28;20466;-76
2021/12/02 13:46:18;;;;;;;14.75;9.02;;;359.00;2329.60;;;;;;4986980;28;20039;-78
2021/12/02 13:48:54;;;;;;;22.73;12.40;;;358.90;2329.60;;;;;;4973651;28;20026;-77
2021/12/02 13:54:52;;;;;;;19.10;10.60;;;358.70;2329.60;;;;;;4977039;28;20077;-76
2021/12/02 13:57:47;;;;;;;26.73;13.18;;;358.60;2329.60;;;;;;5020803;28;20086;-76
2021/12/02 14:00:53;;;;;;;12.70;8.18;;;358.60;2329.60;;;;;;5054402;28;20060;-77
2021/12/02 14:03:51;;;;;;;14.52;8.85;;;358.50;2329.60;;;;;;5071785;28;20071;-76
2021/12/02 14:06:21;;;;;;;15.82;7.97;;;358.40;2329.60;;;;;;5073187;28;20021;-77